Aviation Digital Data Service (ADDS)

Output produced by METARs form (1242 UTC 17 December 2018)
found at http://aviationweather.gov/metar/data/
 
KHOU 171153Z 21003KT 10SM BKN180 OVC210 12/11 A3026 RMK AO2 SLP250 T01170106 10122 20106 51006
KHOU 171135Z 1712/1812 VRB04KT P6SM BKN180 
     FM180900 00000KT 3SM BR SKC